sensor_id;sensor_type;location;lat;lon;timestamp;temperature;humidity
18950;DHT22;9608;49.288;8.130;2022-07-10T00:02:15;18.00;99.90
18950;DHT22;9608;49.288;8.130;2022-07-10T00:04:42;18.00;99.90
18950;DHT22;9608;49.288;8.130;2022-07-10T00:07:09;18.00;99.90
18950;DHT22;9608;49.288;8.130;2022-07-10T00:09:36;17.90;99.90
18950;DHT22;9608;49.288;8.130;2022-07-10T00:12:03;17.90;99.90
18950;DHT22;9608;49.288;8.130;2022-07-10T00:14:32;17.90;99.90
18950;DHT22;9608;49.288;8.130;2022-07-10T00:16:59;17.80;99.90
18950;DHT22;9608;49.288;8.130;2022-07-10T00:19:25;17.80;99.90
18950;DHT22;9608;49.288;8.130;2022-07-10T00:21:52;17.70;99.90
18950;DHT22;9608;49.288;8.130;2022-07-10T00:24:19;17.70;99.90
18950;DHT22;9608;49.288;8.130;2022-07-10T00:26:45;17.70;99.90
18950;DHT22;9608;49.288;8.130;2022-07-10T00:29:13;17.70;99.90
18950;DHT22;9608;49.288;8.130;2022-07-10T00:31:41;17.60;99.90
18950;DHT22;9608;49.288;8.130;2022-07-10T00:34:08;17.60;99.90
18950;DHT22;9608;49.288;8.130;2022-07-10T00:36:34;17.50;99.90
18950;DHT22;9608;49.288;8.130;2022-07-10T00:39:01;17.50;99.90
18950;DHT22;9608;49.288;8.130;2022-07-10T00:41:28;17.40;99.90
18950;DHT22;9608;49.288;8.130;2022-07-10T00:43:55;17.40;99.90
18950;DHT22;9608;49.288;8.130;2022-07-10T00:46:24;17.40;99.90
18950;DHT22;9608;49.288;8.130;2022-07-10T00:48:52;17.30;99.90
18950;DHT22;9608;49.288;8.130;2022-07-10T00:51:21;17.30;99.90
18950;DHT22;9608;49.288;8.130;2022-07-10T00:53:48;17.30;99.90
18950;DHT22;9608;49.288;8.130;2022-07-10T00:56:16;17.30;99.90
18950;DHT22;9608;49.288;8.130;2022-07-10T00:58:45;17.20;99.90
18950;DHT22;9608;49.288;8.130;2022-07-10T01:01:12;17.20;99.90
18950;DHT22;9608;49.288;8.130;2022-07-10T01:03:39;17.20;99.90
18950;DHT22;9608;49.288;8.130;2022-07-10T01:06:07;17.20;99.90
18950;DHT22;9608;49.288;8.130;2022-07-10T01:08:34;17.20;99.90
18950;DHT22;9608;49.288;8.130;2022-07-10T01:11:01;17.10;99.90
18950;DHT22;9608;49.288;8.130;2022-07-10T01:13:28;17.10;99.90
18950;DHT22;9608;49.288;8.130;2022-07-10T01:15:55;17.00;99.90
18950;DHT22;9608;49.288;8.130;2022-07-10T01:18:23;17.00;99.90
18950;DHT22;9608;49.288;8.130;2022-07-10T01:20:52;17.00;99.90
18950;DHT22;9608;49.288;8.130;2022-07-10T01:23:20;17.00;99.90
18950;DHT22;9608;49.288;8.130;2022-07-10T01:25:47;17.00;99.90
18950;DHT22;9608;49.288;8.130;2022-07-10T01:28:15;16.90;99.90
18950;DHT22;9608;49.288;8.130;2022-07-10T01:30:42;16.80;99.90
18950;DHT22;9608;49.288;8.130;2022-07-10T01:33:09;16.80;99.90
18950;DHT22;9608;49.288;8.130;2022-07-10T01:35:36;16.90;99.90
18950;DHT22;9608;49.288;8.130;2022-07-10T01:38:04;16.90;99.90
18950;DHT22;9608;49.288;8.130;2022-07-10T01:40:31;16.80;99.90
18950;DHT22;9608;49.288;8.130;2022-07-10T01:42:58;16.80;99.90
18950;DHT22;9608;49.288;8.130;2022-07-10T01:45:25;16.70;99.90
18950;DHT22;9608;49.288;8.130;2022-07-10T01:47:51;16.70;99.90
18950;DHT22;9608;49.288;8.130;2022-07-10T01:50:18;16.70;99.90
18950;DHT22;9608;49.288;8.130;2022-07-10T01:52:45;16.60;99.90
18950;DHT22;9608;49.288;8.130;2022-07-10T01:55:13;16.60;99.90
18950;DHT22;9608;49.288;8.130;2022-07-10T01:57:40;16.60;99.90
18950;DHT22;9608;49.288;8.130;2022-07-10T02:00:08;16.50;99.90
18950;DHT22;9608;49.288;8.130;2022-07-10T02:02:35;16.40;99.90
18950;DHT22;9608;49.288;8.130;2022-07-10T02:05:02;16.40;99.90
18950;DHT22;9608;49.288;8.130;2022-07-10T02:07:28;16.40;99.90
18950;DHT22;9608;49.288;8.130;2022-07-10T02:09:54;16.40;99.90
18950;DHT22;9608;49.288;8.130;2022-07-10T02:12:22;16.30;99.90
18950;DHT22;9608;49.288;8.130;2022-07-10T02:14:49;16.30;99.90
18950;DHT22;9608;49.288;8.130;2022-07-10T02:17:16;16.20;99.90
18950;DHT22;9608;49.288;8.130;2022-07-10T02:19:43;16.10;99.90
18950;DHT22;9608;49.288;8.130;2022-07-10T02:22:09;16.10;99.90
18950;DHT22;9608;49.288;8.130;2022-07-10T02:24:36;16.10;99.90
18950;DHT22;9608;49.288;8.130;2022-07-10T02:27:04;16.10;99.90
18950;DHT22;9608;49.288;8.130;2022-07-10T02:29:32;16.10;99.90
18950;DHT22;9608;49.288;8.130;2022-07-10T02:31:59;16.00;99.90
18950;DHT22;9608;49.288;8.130;2022-07-10T02:34:25;15.90;99.90
18950;DHT22;9608;49.288;8.130;2022-07-10T02:36:52;16.00;99.90
18950;DHT22;9608;49.288;8.130;2022-07-10T02:39:19;16.00;99.90
18950;DHT22;9608;49.288;8.130;2022-07-10T02:41:47;16.10;99.90
18950;DHT22;9608;49.288;8.130;2022-07-10T02:44:14;16.10;99.90
18950;DHT22;9608;49.288;8.130;2022-07-10T02:46:43;16.10;99.90
18950;DHT22;9608;49.288;8.130;2022-07-10T02:49:09;16.00;99.90
18950;DHT22;9608;49.288;8.130;2022-07-10T02:51:36;16.00;99.90
18950;DHT22;9608;49.288;8.130;2022-07-10T02:54:03;16.00;99.90
18950;DHT22;9608;49.288;8.130;2022-07-10T02:56:29;16.00;99.90
18950;DHT22;9608;49.288;8.130;2022-07-10T02:58:56;15.90;99.90
18950;DHT22;9608;49.288;8.130;2022-07-10T03:01:23;15.90;99.90
18950;DHT22;9608;49.288;8.130;2022-07-10T03:03:51;15.80;99.90
18950;DHT22;9608;49.288;8.130;2022-07-10T03:06:18;15.90;99.90
18950;DHT22;9608;49.288;8.130;2022-07-10T03:08:44;15.80;99.90
18950;DHT22;9608;49.288;8.130;2022-07-10T03:11:11;15.80;99.90
18950;DHT22;9608;49.288;8.130;2022-07-10T03:13:38;15.80;99.90
18950;DHT22;9608;49.288;8.130;2022-07-10T03:16:05;15.70;99.90
18950;DHT22;9608;49.288;8.130;2022-07-10T03:18:32;15.70;99.90
18950;DHT22;9608;49.288;8.130;2022-07-10T03:21:00;15.70;99.90
18950;DHT22;9608;49.288;8.130;2022-07-10T03:23:26;15.70;99.90
18950;DHT22;9608;49.288;8.130;2022-07-10T03:25:53;15.60;99.90
18950;DHT22;9608;49.288;8.130;2022-07-10T03:28:20;15.60;99.90
18950;DHT22;9608;49.288;8.130;2022-07-10T03:30:47;15.60;99.90
18950;DHT22;9608;49.288;8.130;2022-07-10T03:33:13;15.50;99.90
18950;DHT22;9608;49.288;8.130;2022-07-10T03:35:40;15.50;99.90
18950;DHT22;9608;49.288;8.130;2022-07-10T03:38:08;15.50;99.90
18950;DHT22;9608;49.288;8.130;2022-07-10T03:40:35;15.40;99.90
18950;DHT22;9608;49.288;8.130;2022-07-10T03:43:02;15.40;99.90
18950;DHT22;9608;49.288;8.130;2022-07-10T03:45:29;15.40;99.90
18950;DHT22;9608;49.288;8.130;2022-07-10T03:47:55;15.40;99.90
18950;DHT22;9608;49.288;8.130;2022-07-10T03:50:22;15.40;99.90
18950;DHT22;9608;49.288;8.130;2022-07-10T03:52:49;15.30;99.90
18950;DHT22;9608;49.288;8.130;2022-07-10T03:55:17;15.30;99.90
18950;DHT22;9608;49.288;8.130;2022-07-10T03:57:44;15.30;99.90
18950;DHT22;9608;49.288;8.130;2022-07-10T04:00:19;15.40;99.90
18950;DHT22;9608;49.288;8.130;2022-07-10T04:02:47;15.40;99.90
18950;DHT22;9608;49.288;8.130;2022-07-10T04:05:14;15.60;99.90
18950;DHT22;9608;49.288;8.130;2022-07-10T04:07:41;15.70;99.90
18950;DHT22;9608;49.288;8.130;2022-07-10T04:10:09;15.70;99.90
18950;DHT22;9608;49.288;8.130;2022-07-10T04:12:37;15.80;99.90
18950;DHT22;9608;49.288;8.130;2022-07-10T04:15:05;16.00;99.90
18950;DHT22;9608;49.288;8.130;2022-07-10T04:17:32;16.20;99.90
18950;DHT22;9608;49.288;8.130;2022-07-10T04:19:59;16.40;99.90
18950;DHT22;9608;49.288;8.130;2022-07-10T04:22:26;16.50;99.90
18950;DHT22;9608;49.288;8.130;2022-07-10T04:24:53;16.70;99.90
18950;DHT22;9608;49.288;8.130;2022-07-10T04:27:20;16.90;99.90
18950;DHT22;9608;49.288;8.130;2022-07-10T04:29:48;17.10;99.90
18950;DHT22;9608;49.288;8.130;2022-07-10T04:32:15;17.40;99.90
18950;DHT22;9608;49.288;8.130;2022-07-10T04:34:42;17.50;99.90
18950;DHT22;9608;49.288;8.130;2022-07-10T04:37:09;17.60;99.90
18950;DHT22;9608;49.288;8.130;2022-07-10T04:39:36;17.70;99.90
18950;DHT22;9608;49.288;8.130;2022-07-10T04:42:04;17.80;99.90
18950;DHT22;9608;49.288;8.130;2022-07-10T04:44:31;17.90;99.90
18950;DHT22;9608;49.288;8.130;2022-07-10T04:47:00;17.90;99.90
18950;DHT22;9608;49.288;8.130;2022-07-10T04:49:26;18.00;99.90
18950;DHT22;9608;49.288;8.130;2022-07-10T04:51:54;18.10;99.90
18950;DHT22;9608;49.288;8.130;2022-07-10T04:54:21;18.20;99.90
18950;DHT22;9608;49.288;8.130;2022-07-10T04:56:48;18.30;99.90
18950;DHT22;9608;49.288;8.130;2022-07-10T04:59:15;18.40;99.90
18950;DHT22;9608;49.288;8.130;2022-07-10T05:01:42;18.50;99.90
18950;DHT22;9608;49.288;8.130;2022-07-10T05:04:10;18.60;99.90
18950;DHT22;9608;49.288;8.130;2022-07-10T05:06:37;18.80;99.90
18950;DHT22;9608;49.288;8.130;2022-07-10T05:09:04;19.00;99.90
18950;DHT22;9608;49.288;8.130;2022-07-10T05:11:31;19.10;99.90
18950;DHT22;9608;49.288;8.130;2022-07-10T05:13:58;19.00;99.90
18950;DHT22;9608;49.288;8.130;2022-07-10T05:16:24;19.00;99.90
18950;DHT22;9608;49.288;8.130;2022-07-10T05:18:51;18.70;99.90
18950;DHT22;9608;49.288;8.130;2022-07-10T05:21:20;18.70;99.90
18950;DHT22;9608;49.288;8.130;2022-07-10T05:23:46;18.40;99.90
18950;DHT22;9608;49.288;8.130;2022-07-10T05:26:13;18.40;99.90
18950;DHT22;9608;49.288;8.130;2022-07-10T05:28:40;18.50;99.90
18950;DHT22;9608;49.288;8.130;2022-07-10T05:31:07;18.60;99.90
18950;DHT22;9608;49.288;8.130;2022-07-10T05:33:34;18.60;99.90
18950;DHT22;9608;49.288;8.130;2022-07-10T05:36:04;18.60;99.90
18950;DHT22;9608;49.288;8.130;2022-07-10T05:38:32;18.60;99.90
18950;DHT22;9608;49.288;8.130;2022-07-10T05:40:59;18.60;99.90
18950;DHT22;9608;49.288;8.130;2022-07-10T05:43:25;18.70;99.90
18950;DHT22;9608;49.288;8.130;2022-07-10T05:45:52;18.70;99.90
18950;DHT22;9608;49.288;8.130;2022-07-10T05:48:19;18.70;99.90
18950;DHT22;9608;49.288;8.130;2022-07-10T05:50:46;18.70;99.90
18950;DHT22;9608;49.288;8.130;2022-07-10T05:53:12;18.50;99.90
18950;DHT22;9608;49.288;8.130;2022-07-10T05:55:40;18.30;99.90
18950;DHT22;9608;49.288;8.130;2022-07-10T05:58:07;18.10;99.90
18950;DHT22;9608;49.288;8.130;2022-07-10T06:00:34;18.00;99.90
18950;DHT22;9608;49.288;8.130;2022-07-10T06:03:01;17.90;99.90
18950;DHT22;9608;49.288;8.130;2022-07-10T06:05:28;17.70;99.90
18950;DHT22;9608;49.288;8.130;2022-07-10T06:07:54;17.70;99.90
18950;DHT22;9608;49.288;8.130;2022-07-10T06:10:21;17.50;99.90
18950;DHT22;9608;49.288;8.130;2022-07-10T06:12:49;17.60;99.90
18950;DHT22;9608;49.288;8.130;2022-07-10T06:15:16;17.40;99.90
18950;DHT22;9608;49.288;8.130;2022-07-10T06:17:43;17.40;99.90
18950;DHT22;9608;49.288;8.130;2022-07-10T06:20:10;17.50;99.90
18950;DHT22;9608;49.288;8.130;2022-07-10T06:22:37;17.40;99.90
18950;DHT22;9608;49.288;8.130;2022-07-10T06:25:07;17.40;99.90
18950;DHT22;9608;49.288;8.130;2022-07-10T06:27:34;17.60;99.90
18950;DHT22;9608;49.288;8.130;2022-07-10T06:30:03;17.60;99.90
18950;DHT22;9608;49.288;8.130;2022-07-10T06:32:30;17.60;99.90
18950;DHT22;9608;49.288;8.130;2022-07-10T06:34:57;17.60;99.90
18950;DHT22;9608;49.288;8.130;2022-07-10T06:37:24;17.60;99.90
18950;DHT22;9608;49.288;8.130;2022-07-10T06:39:50;17.70;99.90
18950;DHT22;9608;49.288;8.130;2022-07-10T06:42:17;17.70;99.90
18950;DHT22;9608;49.288;8.130;2022-07-10T06:44:44;17.70;99.90
18950;DHT22;9608;49.288;8.130;2022-07-10T06:47:14;17.60;99.90
18950;DHT22;9608;49.288;8.130;2022-07-10T06:49:59;17.70;99.90
18950;DHT22;9608;49.288;8.130;2022-07-10T06:52:26;17.70;99.90
18950;DHT22;9608;49.288;8.130;2022-07-10T06:54:53;17.90;99.90
18950;DHT22;9608;49.288;8.130;2022-07-10T06:57:20;17.90;99.90
18950;DHT22;9608;49.288;8.130;2022-07-10T06:59:47;17.90;99.90
18950;DHT22;9608;49.288;8.130;2022-07-10T07:02:16;18.00;99.90
18950;DHT22;9608;49.288;8.130;2022-07-10T07:04:43;17.90;99.90
18950;DHT22;9608;49.288;8.130;2022-07-10T07:07:11;17.70;99.90
18950;DHT22;9608;49.288;8.130;2022-07-10T07:09:38;17.70;99.90
18950;DHT22;9608;49.288;8.130;2022-07-10T07:12:06;17.60;99.90
18950;DHT22;9608;49.288;8.130;2022-07-10T07:14:33;17.80;99.90
18950;DHT22;9608;49.288;8.130;2022-07-10T07:17:00;17.80;99.90
18950;DHT22;9608;49.288;8.130;2022-07-10T07:19:32;17.60;99.90
18950;DHT22;9608;49.288;8.130;2022-07-10T07:22:19;17.50;99.90
18950;DHT22;9608;49.288;8.130;2022-07-10T07:25:04;17.40;99.90
18950;DHT22;9608;49.288;8.130;2022-07-10T07:27:32;17.60;99.90
18950;DHT22;9608;49.288;8.130;2022-07-10T07:30:02;17.60;99.90
18950;DHT22;9608;49.288;8.130;2022-07-10T07:32:29;17.80;99.90
18950;DHT22;9608;49.288;8.130;2022-07-10T07:34:57;17.70;99.90
18950;DHT22;9608;49.288;8.130;2022-07-10T07:37:34;17.70;99.90
18950;DHT22;9608;49.288;8.130;2022-07-10T07:40:01;17.70;99.90
18950;DHT22;9608;49.288;8.130;2022-07-10T07:42:28;17.90;99.90
18950;DHT22;9608;49.288;8.130;2022-07-10T07:44:55;18.10;99.90
18950;DHT22;9608;49.288;8.130;2022-07-10T07:47:21;18.20;99.90
18950;DHT22;9608;49.288;8.130;2022-07-10T07:49:48;18.20;99.90
18950;DHT22;9608;49.288;8.130;2022-07-10T07:52:16;18.20;99.90
18950;DHT22;9608;49.288;8.130;2022-07-10T07:54:43;18.20;99.90
18950;DHT22;9608;49.288;8.130;2022-07-10T07:57:10;18.00;99.90
18950;DHT22;9608;49.288;8.130;2022-07-10T07:59:37;17.90;99.90
18950;DHT22;9608;49.288;8.130;2022-07-10T08:02:05;18.00;99.90
18950;DHT22;9608;49.288;8.130;2022-07-10T08:04:32;18.40;99.90
18950;DHT22;9608;49.288;8.130;2022-07-10T08:06:59;18.60;99.90
18950;DHT22;9608;49.288;8.130;2022-07-10T08:09:29;18.40;99.90
18950;DHT22;9608;49.288;8.130;2022-07-10T08:11:55;18.50;99.90
18950;DHT22;9608;49.288;8.130;2022-07-10T08:14:22;18.70;99.90
18950;DHT22;9608;49.288;8.130;2022-07-10T08:16:49;18.70;99.90
18950;DHT22;9608;49.288;8.130;2022-07-10T08:19:16;18.80;99.90
18950;DHT22;9608;49.288;8.130;2022-07-10T08:21:43;19.10;99.90
18950;DHT22;9608;49.288;8.130;2022-07-10T08:24:10;19.50;99.90
18950;DHT22;9608;49.288;8.130;2022-07-10T08:26:38;19.90;99.90
18950;DHT22;9608;49.288;8.130;2022-07-10T08:29:05;20.00;99.90
18950;DHT22;9608;49.288;8.130;2022-07-10T08:31:31;20.10;99.90
18950;DHT22;9608;49.288;8.130;2022-07-10T08:33:59;20.10;99.90
18950;DHT22;9608;49.288;8.130;2022-07-10T08:36:26;19.80;99.90
18950;DHT22;9608;49.288;8.130;2022-07-10T08:38:53;19.40;99.90
18950;DHT22;9608;49.288;8.130;2022-07-10T08:41:25;19.10;99.90
18950;DHT22;9608;49.288;8.130;2022-07-10T08:43:53;18.60;99.90
18950;DHT22;9608;49.288;8.130;2022-07-10T08:46:20;18.60;99.90
18950;DHT22;9608;49.288;8.130;2022-07-10T08:48:48;18.80;99.90
18950;DHT22;9608;49.288;8.130;2022-07-10T08:51:20;18.60;99.90
18950;DHT22;9608;49.288;8.130;2022-07-10T08:53:51;18.60;99.90
18950;DHT22;9608;49.288;8.130;2022-07-10T08:56:18;18.60;99.90
18950;DHT22;9608;49.288;8.130;2022-07-10T08:58:45;18.80;99.90
18950;DHT22;9608;49.288;8.130;2022-07-10T09:01:15;18.80;99.90
18950;DHT22;9608;49.288;8.130;2022-07-10T09:03:48;18.80;99.90
18950;DHT22;9608;49.288;8.130;2022-07-10T09:06:15;19.10;99.90
18950;DHT22;9608;49.288;8.130;2022-07-10T09:08:57;19.20;99.90
18950;DHT22;9608;49.288;8.130;2022-07-10T09:11:24;19.40;99.90
18950;DHT22;9608;49.288;8.130;2022-07-10T09:13:55;19.40;99.90
18950;DHT22;9608;49.288;8.130;2022-07-10T09:16:25;19.50;99.90
18950;DHT22;9608;49.288;8.130;2022-07-10T09:18:52;19.60;99.90
18950;DHT22;9608;49.288;8.130;2022-07-10T09:21:20;19.40;99.90
18950;DHT22;9608;49.288;8.130;2022-07-10T09:23:47;19.20;99.90
18950;DHT22;9608;49.288;8.130;2022-07-10T09:26:14;19.40;99.90
18950;DHT22;9608;49.288;8.130;2022-07-10T09:28:42;19.70;99.90
18950;DHT22;9608;49.288;8.130;2022-07-10T09:31:08;19.90;99.90
18950;DHT22;9608;49.288;8.130;2022-07-10T09:33:36;19.90;99.90
18950;DHT22;9608;49.288;8.130;2022-07-10T09:36:08;20.10;99.90
18950;DHT22;9608;49.288;8.130;2022-07-10T09:38:50;20.30;99.90
18950;DHT22;9608;49.288;8.130;2022-07-10T09:41:19;20.60;99.90
18950;DHT22;9608;49.288;8.130;2022-07-10T09:43:47;20.70;99.90
18950;DHT22;9608;49.288;8.130;2022-07-10T09:46:15;20.40;99.90
18950;DHT22;9608;49.288;8.130;2022-07-10T09:48:43;20.60;99.90
18950;DHT22;9608;49.288;8.130;2022-07-10T09:51:11;20.60;99.90
18950;DHT22;9608;49.288;8.130;2022-07-10T09:53:39;20.60;99.90
18950;DHT22;9608;49.288;8.130;2022-07-10T09:56:07;20.60;99.90
18950;DHT22;9608;49.288;8.130;2022-07-10T09:58:35;20.60;99.90
18950;DHT22;9608;49.288;8.130;2022-07-10T10:01:03;20.60;99.90
18950;DHT22;9608;49.288;8.130;2022-07-10T10:03:35;20.50;99.90
18950;DHT22;9608;49.288;8.130;2022-07-10T10:06:08;20.30;99.90
18950;DHT22;9608;49.288;8.130;2022-07-10T10:08:44;20.50;99.90
18950;DHT22;9608;49.288;8.130;2022-07-10T10:11:15;20.50;99.90
18950;DHT22;9608;49.288;8.130;2022-07-10T10:13:43;20.50;99.90
18950;DHT22;9608;49.288;8.130;2022-07-10T10:16:10;20.60;99.90
18950;DHT22;9608;49.288;8.130;2022-07-10T10:18:37;20.60;99.90
18950;DHT22;9608;49.288;8.130;2022-07-10T10:21:27;20.40;99.90
18950;DHT22;9608;49.288;8.130;2022-07-10T10:23:54;20.60;99.90
18950;DHT22;9608;49.288;8.130;2022-07-10T10:26:22;20.90;99.90
18950;DHT22;9608;49.288;8.130;2022-07-10T10:28:51;21.10;99.90
18950;DHT22;9608;49.288;8.130;2022-07-10T10:31:19;20.70;99.90
18950;DHT22;9608;49.288;8.130;2022-07-10T10:33:46;20.30;99.90
18950;DHT22;9608;49.288;8.130;2022-07-10T10:36:42;20.20;99.90
18950;DHT22;9608;49.288;8.130;2022-07-10T10:39:09;20.30;99.90
18950;DHT22;9608;49.288;8.130;2022-07-10T10:41:39;20.50;99.90
18950;DHT22;9608;49.288;8.130;2022-07-10T10:44:22;20.80;99.90
18950;DHT22;9608;49.288;8.130;2022-07-10T10:46:55;21.30;99.90
18950;DHT22;9608;49.288;8.130;2022-07-10T10:49:26;21.80;99.90
18950;DHT22;9608;49.288;8.130;2022-07-10T10:51:57;22.10;99.90
18950;DHT22;9608;49.288;8.130;2022-07-10T10:54:26;22.30;99.70
18950;DHT22;9608;49.288;8.130;2022-07-10T10:57:12;22.30;99.90
18950;DHT22;9608;49.288;8.130;2022-07-10T10:59:45;21.80;99.90
18950;DHT22;9608;49.288;8.130;2022-07-10T11:02:24;21.90;99.90
18950;DHT22;9608;49.288;8.130;2022-07-10T11:04:51;22.00;99.90
18950;DHT22;9608;49.288;8.130;2022-07-10T11:07:51;21.80;99.90
18950;DHT22;9608;49.288;8.130;2022-07-10T11:10:30;21.80;99.90
18950;DHT22;9608;49.288;8.130;2022-07-10T11:12:58;21.70;99.90
18950;DHT22;9608;49.288;8.130;2022-07-10T11:15:26;21.50;99.90
18950;DHT22;9608;49.288;8.130;2022-07-10T11:17:55;21.50;99.90
18950;DHT22;9608;49.288;8.130;2022-07-10T11:20:22;21.50;99.90
18950;DHT22;9608;49.288;8.130;2022-07-10T11:22:56;21.60;99.90
18950;DHT22;9608;49.288;8.130;2022-07-10T11:25:36;21.60;99.90
18950;DHT22;9608;49.288;8.130;2022-07-10T11:28:08;22.00;99.90
18950;DHT22;9608;49.288;8.130;2022-07-10T11:30:46;21.70;99.90
18950;DHT22;9608;49.288;8.130;2022-07-10T11:33:14;21.60;99.90
18950;DHT22;9608;49.288;8.130;2022-07-10T11:35:44;21.50;99.90
18950;DHT22;9608;49.288;8.130;2022-07-10T11:38:11;21.40;99.90
18950;DHT22;9608;49.288;8.130;2022-07-10T11:40:39;21.60;99.90
18950;DHT22;9608;49.288;8.130;2022-07-10T11:43:06;21.80;99.90
18950;DHT22;9608;49.288;8.130;2022-07-10T11:45:39;22.00;99.90
18950;DHT22;9608;49.288;8.130;2022-07-10T11:48:06;22.00;99.90
18950;DHT22;9608;49.288;8.130;2022-07-10T11:50:35;22.00;99.90
18950;DHT22;9608;49.288;8.130;2022-07-10T11:53:03;22.10;99.90
18950;DHT22;9608;49.288;8.130;2022-07-10T11:55:30;22.50;99.70
18950;DHT22;9608;49.288;8.130;2022-07-10T11:58:14;22.70;99.00
18950;DHT22;9608;49.288;8.130;2022-07-10T12:00:41;22.60;99.90
18950;DHT22;9608;49.288;8.130;2022-07-10T12:03:19;22.50;99.30
18950;DHT22;9608;49.288;8.130;2022-07-10T12:05:47;22.50;99.90
18950;DHT22;9608;49.288;8.130;2022-07-10T12:08:14;22.30;99.80
18950;DHT22;9608;49.288;8.130;2022-07-10T12:10:41;22.30;99.90
18950;DHT22;9608;49.288;8.130;2022-07-10T12:13:09;22.60;99.80
18950;DHT22;9608;49.288;8.130;2022-07-10T12:15:38;22.90;99.70
18950;DHT22;9608;49.288;8.130;2022-07-10T12:18:09;22.60;99.10
18950;DHT22;9608;49.288;8.130;2022-07-10T12:20:41;22.40;99.90
18950;DHT22;9608;49.288;8.130;2022-07-10T12:23:11;22.40;99.80
18950;DHT22;9608;49.288;8.130;2022-07-10T12:25:41;22.60;99.90
18950;DHT22;9608;49.288;8.130;2022-07-10T12:28:08;22.90;99.80
18950;DHT22;9608;49.288;8.130;2022-07-10T12:30:38;22.90;99.50
18950;DHT22;9608;49.288;8.130;2022-07-10T12:33:09;23.00;99.90
18950;DHT22;9608;49.288;8.130;2022-07-10T12:35:49;22.60;99.90
18950;DHT22;9608;49.288;8.130;2022-07-10T12:38:17;22.40;99.90
18950;DHT22;9608;49.288;8.130;2022-07-10T12:40:44;22.60;99.90
18950;DHT22;9608;49.288;8.130;2022-07-10T12:43:11;22.80;99.60
18950;DHT22;9608;49.288;8.130;2022-07-10T12:45:40;23.00;99.10
18950;DHT22;9608;49.288;8.130;2022-07-10T12:48:06;23.30;99.00
18950;DHT22;9608;49.288;8.130;2022-07-10T12:50:33;23.50;99.90
18950;DHT22;9608;49.288;8.130;2022-07-10T12:53:10;23.70;98.30
18950;DHT22;9608;49.288;8.130;2022-07-10T12:55:39;24.10;97.90
18950;DHT22;9608;49.288;8.130;2022-07-10T12:58:07;24.50;98.90
18950;DHT22;9608;49.288;8.130;2022-07-10T13:00:46;24.80;98.50
18950;DHT22;9608;49.288;8.130;2022-07-10T13:03:17;24.50;96.80
18950;DHT22;9608;49.288;8.130;2022-07-10T13:05:45;24.30;97.50
18950;DHT22;9608;49.288;8.130;2022-07-10T13:08:13;24.40;98.10
18950;DHT22;9608;49.288;8.130;2022-07-10T13:10:42;24.20;98.30
18950;DHT22;9608;49.288;8.130;2022-07-10T13:13:09;24.20;97.70
18950;DHT22;9608;49.288;8.130;2022-07-10T13:15:36;24.40;98.00
18950;DHT22;9608;49.288;8.130;2022-07-10T13:18:08;24.60;98.10
18950;DHT22;9608;49.288;8.130;2022-07-10T13:20:38;24.50;97.60
18950;DHT22;9608;49.288;8.130;2022-07-10T13:23:05;24.30;97.60
18950;DHT22;9608;49.288;8.130;2022-07-10T13:25:32;24.10;97.40
18950;DHT22;9608;49.288;8.130;2022-07-10T13:27:59;24.10;97.60
18950;DHT22;9608;49.288;8.130;2022-07-10T13:30:26;23.80;99.00
18950;DHT22;9608;49.288;8.130;2022-07-10T13:32:53;23.80;98.80
18950;DHT22;9608;49.288;8.130;2022-07-10T13:35:21;23.60;98.70
18950;DHT22;9608;49.288;8.130;2022-07-10T13:37:48;23.50;99.40
18950;DHT22;9608;49.288;8.130;2022-07-10T13:40:15;23.60;99.00
18950;DHT22;9608;49.288;8.130;2022-07-10T13:42:42;23.40;99.70
18950;DHT22;9608;49.288;8.130;2022-07-10T13:45:10;23.40;99.80
18950;DHT22;9608;49.288;8.130;2022-07-10T13:47:37;23.40;99.30
18950;DHT22;9608;49.288;8.130;2022-07-10T13:50:04;23.60;98.90
18950;DHT22;9608;49.288;8.130;2022-07-10T13:52:33;23.80;98.80
18950;DHT22;9608;49.288;8.130;2022-07-10T13:54:59;24.00;98.40
18950;DHT22;9608;49.288;8.130;2022-07-10T13:57:26;23.80;98.90
18950;DHT22;9608;49.288;8.130;2022-07-10T13:59:53;24.00;98.70
18950;DHT22;9608;49.288;8.130;2022-07-10T14:02:20;24.10;98.20
18950;DHT22;9608;49.288;8.130;2022-07-10T14:04:46;24.30;98.60
18950;DHT22;9608;49.288;8.130;2022-07-10T14:07:13;24.50;97.50
18950;DHT22;9608;49.288;8.130;2022-07-10T14:09:41;24.60;98.00
18950;DHT22;9608;49.288;8.130;2022-07-10T14:12:08;24.40;97.40
18950;DHT22;9608;49.288;8.130;2022-07-10T14:14:35;24.30;98.00
18950;DHT22;9608;49.288;8.130;2022-07-10T14:17:02;24.00;99.00
18950;DHT22;9608;49.288;8.130;2022-07-10T14:19:29;24.10;98.50
18950;DHT22;9608;49.288;8.130;2022-07-10T14:21:55;24.10;98.30
18950;DHT22;9608;49.288;8.130;2022-07-10T14:24:23;24.00;99.30
18950;DHT22;9608;49.288;8.130;2022-07-10T14:26:51;23.80;99.50
18950;DHT22;9608;49.288;8.130;2022-07-10T14:29:18;23.70;99.20
18950;DHT22;9608;49.288;8.130;2022-07-10T14:31:45;23.50;99.60
18950;DHT22;9608;49.288;8.130;2022-07-10T14:34:14;23.50;99.70
18950;DHT22;9608;49.288;8.130;2022-07-10T14:36:41;23.30;99.90
18950;DHT22;9608;49.288;8.130;2022-07-10T14:39:08;23.30;99.90
18950;DHT22;9608;49.288;8.130;2022-07-10T14:41:34;23.20;99.90
18950;DHT22;9608;49.288;8.130;2022-07-10T14:44:03;23.20;99.90
18950;DHT22;9608;49.288;8.130;2022-07-10T14:46:30;23.00;99.90
18950;DHT22;9608;49.288;8.130;2022-07-10T14:48:56;22.80;99.90
18950;DHT22;9608;49.288;8.130;2022-07-10T14:51:23;22.60;99.90
18950;DHT22;9608;49.288;8.130;2022-07-10T14:53:50;22.60;99.90
18950;DHT22;9608;49.288;8.130;2022-07-10T14:56:17;22.40;99.90
18950;DHT22;9608;49.288;8.130;2022-07-10T14:58:45;22.50;99.90
18950;DHT22;9608;49.288;8.130;2022-07-10T15:01:13;22.30;99.90
18950;DHT22;9608;49.288;8.130;2022-07-10T15:03:41;22.50;99.90
18950;DHT22;9608;49.288;8.130;2022-07-10T15:06:08;22.40;99.90
18950;DHT22;9608;49.288;8.130;2022-07-10T15:08:35;22.40;99.90
18950;DHT22;9608;49.288;8.130;2022-07-10T15:11:01;22.50;99.90
18950;DHT22;9608;49.288;8.130;2022-07-10T15:13:30;22.50;99.90
18950;DHT22;9608;49.288;8.130;2022-07-10T15:15:57;22.40;99.90
18950;DHT22;9608;49.288;8.130;2022-07-10T15:18:26;22.40;99.90
18950;DHT22;9608;49.288;8.130;2022-07-10T15:20:52;22.50;99.90
18950;DHT22;9608;49.288;8.130;2022-07-10T15:23:19;22.50;99.90
18950;DHT22;9608;49.288;8.130;2022-07-10T15:25:46;22.60;99.90
18950;DHT22;9608;49.288;8.130;2022-07-10T15:28:13;22.40;99.90
18950;DHT22;9608;49.288;8.130;2022-07-10T15:30:39;22.30;99.90
18950;DHT22;9608;49.288;8.130;2022-07-10T15:33:08;22.30;99.90
18950;DHT22;9608;49.288;8.130;2022-07-10T15:35:36;22.20;99.90
18950;DHT22;9608;49.288;8.130;2022-07-10T15:38:03;22.20;99.90
18950;DHT22;9608;49.288;8.130;2022-07-10T15:40:30;22.40;99.90
18950;DHT22;9608;49.288;8.130;2022-07-10T15:42:57;22.50;99.90
18950;DHT22;9608;49.288;8.130;2022-07-10T15:45:24;22.80;99.90
18950;DHT22;9608;49.288;8.130;2022-07-10T15:47:51;22.80;99.90
18950;DHT22;9608;49.288;8.130;2022-07-10T15:50:18;22.90;99.90
18950;DHT22;9608;49.288;8.130;2022-07-10T15:52:47;23.00;99.90